Time;durP1;ratioP1;P1;durP2;ratioP2;P2;SDS_P1;SDS_P2;PMS_P1;PMS_P2;Temp;Humidity;BMP_temperature;BMP_pressure;BME280_temperature;BME280_humidity;BME280_pressure;Samples;Min_cycle;Max_cycle;Signal;HPM_P1;HPM_P2
2022/05/04 00:01:55;;;;;;;35.58;19.70;;;;;;;12.96;72.00;101357.84;5006646;28;20055;-66
2022/05/04 00:04:23;;;;;;;31.10;20.20;;;;;;;12.90;71.85;101345.28;4988926;28;20050;-67
2022/05/04 00:06:51;;;;;;;29.13;19.92;;;;;;;12.92;72.23;101349.34;4985258;28;20045;-67
2022/05/04 00:09:18;;;;;;;30.17;19.38;;;;;;;13.03;71.82;101350.78;5005757;28;20046;-66
2022/05/04 00:11:45;;;;;;;32.78;20.23;;;;;;;13.01;71.53;101346.66;4986886;28;20046;-66
2022/05/04 00:14:13;;;;;;;29.98;19.48;;;;;;;12.93;71.57;101347.41;5003910;28;20060;-67
2022/05/04 00:16:40;;;;;;;30.25;19.80;;;;;;;12.68;73.00;101337.78;5006562;28;20053;-66
2022/05/04 00:19:07;;;;;;;34.13;20.52;;;;;;;12.77;72.77;101335.91;5002516;28;20178;-66
2022/05/04 00:21:35;;;;;;;32.25;20.38;;;;;;;12.79;72.79;101336.41;5005904;28;20042;-65
2022/05/04 00:24:02;;;;;;;34.20;20.95;;;;;;;12.81;72.42;101334.16;4986496;28;20647;-60
2022/05/04 00:26:29;;;;;;;32.13;20.40;;;;;;;12.89;71.84;101321.50;4983211;28;20053;-62
2022/05/04 00:28:57;;;;;;;31.38;19.52;;;;;;;13.01;71.33;101324.53;4991023;28;20045;-61
2022/05/04 00:31:24;;;;;;;32.40;21.13;;;;;;;12.41;73.81;101324.06;5016699;28;20045;-61
2022/05/04 00:33:51;;;;;;;34.42;21.50;;;;;;;12.52;73.83;101316.34;5005224;28;20053;-61
2022/05/04 00:36:19;;;;;;;33.20;21.10;;;;;;;12.78;72.68;101323.72;5010333;28;20058;-60
2022/05/04 00:38:46;;;;;;;32.10;20.10;;;;;;;13.04;71.59;101316.44;5009029;28;20037;-61
2022/05/04 00:41:13;;;;;;;31.77;20.48;;;;;;;12.84;71.85;101314.19;4991234;28;20057;-62
2022/05/04 00:43:40;;;;;;;29.58;20.83;;;;;;;12.90;71.72;101321.19;5008854;28;20045;-61
2022/05/04 00:46:08;;;;;;;36.60;21.58;;;;;;;12.48;73.50;101329.97;4991526;28;20065;-61
2022/05/04 00:48:35;;;;;;;32.35;21.42;;;;;;;12.28;74.41;101328.47;5008045;28;20057;-62
2022/05/04 00:51:03;;;;;;;33.95;20.75;;;;;;;12.66;73.26;101326.22;5007259;28;20701;-61
2022/05/04 00:53:30;;;;;;;33.22;22.10;;;;;;;12.74;72.53;101325.50;4990644;28;20058;-62
2022/05/04 00:55:59;;;;;;;34.55;22.80;;;;;;;12.16;74.85;101325.44;5009617;28;20050;-61
2022/05/04 01:01:14;;;;;;;39.60;22.08;;;;;;;12.15;75.34;101334.03;5009905;28;20193;-62
2022/05/04 01:03:42;;;;;;;34.90;23.35;;;;;;;12.16;75.41;101336.47;5004156;28;20133;-61
2022/05/04 01:06:09;;;;;;;34.55;20.35;;;;;;;12.47;74.52;101333.84;5008637;28;20058;-67
2022/05/04 01:08:36;;;;;;;36.00;22.05;;;;;;;12.46;73.71;101326.69;4990431;28;20521;-62
2022/05/04 01:11:04;;;;;;;36.67;22.52;;;;;;;12.33;74.79;101328.34;4997878;28;20058;-61
2022/05/04 01:13:32;;;;;;;38.08;22.52;;;;;;;12.44;74.05;101324.25;5010236;28;20057;-59
2022/05/04 01:15:59;;;;;;;34.45;21.95;;;;;;;12.39;74.23;101324.38;5007733;28;20200;-61
2022/05/04 01:18:27;;;;;;;34.60;21.23;;;;;;;12.82;72.80;101321.97;5005573;28;20045;-61
2022/05/04 01:20:54;;;;;;;37.35;23.13;;;;;;;12.45;73.59;101327.81;5008394;28;20493;-63
2022/05/04 01:23:22;;;;;;;33.83;22.50;;;;;;;12.26;74.59;101329.91;5006756;28;20133;-60
2022/05/04 01:25:53;;;;;;;34.03;22.73;;;;;;;11.99;75.87;101324.44;5003732;28;20050;-61
2022/05/04 01:28:20;;;;;;;32.67;22.67;;;;;;;12.30;75.02;101331.75;5008419;28;20057;-61
2022/05/04 01:30:48;;;;;;;36.28;23.00;;;;;;;12.26;75.06;101324.38;5005115;28;20057;-60
2022/05/04 01:33:15;;;;;;;33.72;21.55;;;;;;;12.23;74.47;101330.53;5002206;28;20062;-60
2022/05/04 01:35:43;;;;;;;34.97;22.33;;;;;;;11.96;76.16;101322.28;5003205;28;20061;-60
2022/05/04 01:38:10;;;;;;;34.33;21.20;;;;;;;12.24;75.66;101326.63;4991057;28;20046;-62
2022/05/04 01:40:37;;;;;;;38.45;22.20;;;;;;;12.30;74.64;101328.16;5009476;28;20050;-60
2022/05/04 01:43:05;;;;;;;34.20;21.60;;;;;;;12.47;74.04;101336.59;5007310;28;20046;-61
2022/05/04 01:45:32;;;;;;;36.47;21.77;;;;;;;12.46;74.26;101335.00;4991236;28;20077;-61
2022/05/04 01:47:59;;;;;;;34.72;23.58;;;;;;;12.14;74.90;101324.91;5006692;28;20053;-61
2022/05/04 01:50:26;;;;;;;32.03;21.98;;;;;;;12.36;74.80;101321.41;5007235;28;20440;-61
2022/05/04 01:52:54;;;;;;;34.60;21.00;;;;;;;12.52;73.87;101319.91;5007771;28;20176;-61
2022/05/04 01:55:22;;;;;;;32.42;21.48;;;;;;;12.45;73.96;101325.88;5007042;28;20053;-61
2022/05/04 01:57:49;;;;;;;38.67;23.15;;;;;;;12.07;75.04;101324.53;4998543;28;20076;-60
2022/05/04 02:00:17;;;;;;;34.95;21.92;;;;;;;12.14;74.98;101330.44;5008899;28;20060;-61
2022/05/04 02:02:44;;;;;;;37.58;21.65;;;;;;;12.36;74.27;101326.94;5006165;28;20057;-60
2022/05/04 02:05:12;;;;;;;31.65;21.90;;;;;;;12.64;73.15;101334.00;4994764;28;20045;-60
2022/05/04 02:07:39;;;;;;;35.90;21.05;;;;;;;12.29;73.55;101335.63;5003415;28;20060;-60
2022/05/04 02:10:07;;;;;;;33.05;22.45;;;;;;;11.94;75.24;101336.38;4993098;28;20109;-66
2022/05/04 02:12:35;;;;;;;36.50;22.17;;;;;;;12.26;74.28;101327.13;5007263;28;20050;-66
2022/05/04 02:15:06;;;;;;;38.00;22.85;;;;;;;12.61;73.00;101331.88;4990104;28;20061;-67
2022/05/04 02:17:35;;;;;;;37.22;22.80;;;;;;;12.32;74.04;101323.97;5002886;28;20054;-65
2022/05/04 02:20:11;;;;;;;37.05;22.73;;;;;;;12.42;73.39;101328.44;4990822;28;20053;-60
2022/05/04 02:22:38;;;;;;;32.35;21.25;;;;;;;12.58;72.94;101324.22;5010398;28;20057;-60
2022/05/04 02:25:06;;;;;;;40.28;22.73;;;;;;;12.48;72.81;101320.84;5010527;28;20511;-61
2022/05/04 02:27:33;;;;;;;35.13;23.88;;;;;;;12.11;73.75;101322.78;5016046;28;20480;-61
2022/05/04 02:30:01;;;;;;;38.42;23.95;;;;;;;11.95;74.92;101323.41;5007293;28;20034;-60
2022/05/04 02:32:28;;;;;;;37.88;23.50;;;;;;;11.85;75.32;101321.69;5009094;28;20842;-61
2022/05/04 02:38:02;;;;;;;36.45;23.90;;;;;;;12.06;74.90;101333.13;5010584;28;20056;-61
2022/05/04 02:40:28;;;;;;;40.92;24.85;;;;;;;11.83;75.58;101331.38;5002050;28;20061;-60
2022/05/04 02:42:56;;;;;;;39.10;24.33;;;;;;;12.05;74.85;101329.53;5005960;28;20545;-61
2022/05/04 02:45:23;;;;;;;38.63;24.13;;;;;;;12.34;73.61;101316.16;5007590;28;20050;-61
2022/05/04 02:47:51;;;;;;;38.85;24.35;;;;;;;12.13;74.49;101317.75;4988697;28;20061;-58
2022/05/04 02:50:18;;;;;;;43.15;24.17;;;;;;;12.28;73.62;101320.19;5006714;28;20042;-60
2022/05/04 02:52:45;;;;;;;40.67;26.02;;;;;;;12.18;74.29;101312.13;5003844;28;20065;-61
2022/05/04 02:55:13;;;;;;;39.78;24.05;;;;;;;12.25;73.88;101317.22;5006417;28;20057;-60
2022/05/04 02:57:41;;;;;;;38.17;24.50;;;;;;;12.24;73.89;101304.53;4990968;28;20103;-61
2022/05/04 03:00:09;;;;;;;40.65;25.60;;;;;;;12.10;74.91;101301.81;5005207;28;20050;-61
2022/05/04 03:02:37;;;;;;;39.50;25.98;;;;;;;11.84;75.55;101299.88;5005033;28;20054;-61
2022/05/04 03:05:06;;;;;;;39.05;25.77;;;;;;;12.07;74.72;101305.19;5006940;28;21711;-60
2022/05/04 03:07:34;;;;;;;44.22;26.30;;;;;;;11.74;76.17;101308.38;5000384;28;20045;-60
2022/05/04 03:10:01;;;;;;;45.65;27.38;;;;;;;11.63;76.83;101309.69;5010511;28;20386;-62
2022/05/04 03:12:28;;;;;;;43.63;26.48;;;;;;;12.00;75.57;101302.03;5005308;28;20062;-61
2022/05/04 03:14:56;;;;;;;44.22;28.70;;;;;;;12.05;75.05;101301.91;5008002;28;20042;-60
2022/05/04 03:17:23;;;;;;;44.97;28.67;;;;;;;11.80;75.75;101301.63;4973508;28;20072;-60
2022/05/04 03:19:51;;;;;;;47.10;30.20;;;;;;;11.92;75.28;101301.94;4974590;28;20755;-62
2022/05/04 03:22:19;;;;;;;53.55;31.80;;;;;;;11.79;75.63;101302.75;5004213;28;20046;-59
2022/05/04 03:24:46;;;;;;;55.95;33.35;;;;;;;11.93;75.17;101296.09;5004761;28;20059;-60
2022/05/04 03:27:13;;;;;;;52.15;31.27;;;;;;;11.79;75.84;101302.75;4984754;28;20046;-60
2022/05/04 03:29:41;;;;;;;51.92;30.08;;;;;;;11.89;75.74;101308.09;5006574;28;20061;-60
2022/05/04 03:32:09;;;;;;;47.97;30.40;;;;;;;11.75;76.17;101305.31;4992416;28;20045;-61
2022/05/04 03:34:37;;;;;;;56.55;31.55;;;;;;;11.67;76.44;101299.69;4991041;28;20059;-60
2022/05/04 03:37:05;;;;;;;53.28;31.13;;;;;;;11.81;75.96;101298.56;5018066;28;20405;-60
2022/05/04 03:39:32;;;;;;;49.97;30.30;;;;;;;11.88;74.84;101292.63;4985967;28;20060;-61
2022/05/04 03:41:59;;;;;;;52.30;30.20;;;;;;;11.90;75.63;101299.50;5002586;28;20160;-60
2022/05/04 03:44:27;;;;;;;49.80;28.55;;;;;;;11.78;75.70;101293.66;5004175;28;20064;-61
2022/05/04 03:46:54;;;;;;;45.40;27.40;;;;;;;11.82;75.71;101291.91;5005350;28;20489;-61
2022/05/04 03:49:22;;;;;;;44.08;26.33;;;;;;;11.86;75.26;101287.41;5002583;28;20042;-61
2022/05/04 03:51:51;;;;;;;45.38;26.30;;;;;;;11.73;75.80;101299.28;5002028;28;20069;-61
2022/05/04 03:54:19;;;;;;;44.70;26.80;;;;;;;11.88;75.00;101293.44;4984903;28;20062;-61
2022/05/04 03:56:46;;;;;;;46.50;26.63;;;;;;;11.62;75.67;101297.81;5000608;28;20054;-61
2022/05/04 03:59:14;;;;;;;44.65;25.23;;;;;;;11.75;75.09;101299.00;5003674;28;20044;-60
2022/05/04 04:01:41;;;;;;;43.95;25.20;;;;;;;11.47;76.35;101291.78;5008725;28;20057;-60
2022/05/04 04:04:09;;;;;;;43.33;25.65;;;;;;;11.60;76.12;101293.72;4987748;28;20061;-61
2022/05/04 04:06:36;;;;;;;43.72;26.60;;;;;;;11.66;75.67;101292.53;5004126;28;20061;-60
2022/05/04 04:09:04;;;;;;;41.55;25.55;;;;;;;11.59;75.39;101284.66;5005127;28;20351;-63
2022/05/04 04:11:31;;;;;;;46.47;25.08;;;;;;;11.84;74.77;101281.38;4989698;28;20053;-61
2022/05/04 04:13:59;;;;;;;45.85;26.42;;;;;;;11.50;76.01;101286.47;5004810;28;20073;-60
2022/05/04 04:16:26;;;;;;;41.92;26.02;;;;;;;11.66;75.61;101290.59;5003056;28;20061;-62
2022/05/04 04:18:54;;;;;;;48.78;27.13;;;;;;;11.74;74.89;101283.53;4986686;28;22010;-62
2022/05/04 04:24:07;;;;;;;42.33;26.27;;;;;;;11.48;76.14;101294.25;4996365;28;20046;-60
2022/05/04 04:26:37;;;;;;;46.33;25.55;;;;;;;11.70;75.63;101299.88;5004140;28;20404;-63
2022/05/04 04:29:05;;;;;;;43.22;24.20;;;;;;;11.66;76.06;101300.81;4996826;28;20061;-60
2022/05/04 04:31:33;;;;;;;46.58;25.30;;;;;;;11.27;77.77;101304.00;5004018;28;20050;-60
2022/05/04 04:34:04;;;;;;;48.50;25.58;;;;;;;11.51;77.43;101298.31;5004410;28;20744;-60
2022/05/04 04:36:37;;;;;;;37.53;23.83;;;;;;;11.32;78.18;101296.47;4988707;28;20413;-60
2022/05/04 04:39:04;;;;;;;39.58;25.00;;;;;;;11.00;79.24;101298.44;5002816;28;20551;-64
2022/05/04 04:41:32;;;;;;;41.25;25.38;;;;;;;10.94;80.24;101305.97;5005555;28;20050;-60
2022/05/04 04:43:59;;;;;;;44.88;26.38;;;;;;;11.09;79.41;101311.22;5003044;28;20077;-60
2022/05/04 04:46:26;;;;;;;44.33;25.63;;;;;;;10.91;80.08;101314.03;4984071;28;20069;-60
2022/05/04 04:48:54;;;;;;;43.92;25.83;;;;;;;11.35;78.69;101308.81;5000701;28;20061;-61
2022/05/04 04:51:21;;;;;;;44.45;26.08;;;;;;;11.38;78.51;101321.19;5002513;28;20047;-61
2022/05/04 04:53:48;;;;;;;46.60;26.48;;;;;;;11.07;79.01;101321.72;5002456;28;20424;-61
2022/05/04 04:56:16;;;;;;;41.13;25.95;;;;;;;10.88;80.27;101312.69;5005726;28;20058;-60
2022/05/04 04:58:43;;;;;;;44.92;27.00;;;;;;;11.07;79.63;101315.41;5002556;28;20045;-60
2022/05/04 05:01:10;;;;;;;46.83;25.85;;;;;;;11.39;78.30;101309.84;4983847;28;20068;-67
2022/05/04 05:03:38;;;;;;;45.63;25.17;;;;;;;11.37;78.17;101309.34;5005003;28;20049;-66
2022/05/04 05:06:05;;;;;;;42.08;24.88;;;;;;;11.27;77.85;101315.88;5005099;28;20053;-66
2022/05/04 05:08:32;;;;;;;44.80;27.00;;;;;;;10.85;79.41;101315.22;4997978;28;20045;-67
2022/05/04 05:11:00;;;;;;;43.20;26.85;;;;;;;10.63;81.11;101329.63;5002505;28;20050;-66
2022/05/04 05:13:27;;;;;;;46.88;26.55;;;;;;;10.81;80.86;101326.03;4988801;28;20469;-66
2022/05/04 05:16:06;;;;;;;44.70;26.48;;;;;;;10.75;80.38;101327.25;5007004;28;20054;-67
2022/05/04 05:18:35;;;;;;;44.17;26.38;;;;;;;10.58;81.77;101328.88;5008664;28;20085;-66
2022/05/04 05:21:02;;;;;;;40.97;25.58;;;;;;;10.84;80.48;101330.97;5004438;28;20058;-65
2022/05/04 05:23:30;;;;;;;48.05;25.55;;;;;;;10.92;79.48;101324.75;4989067;28;20054;-66
2022/05/04 05:25:57;;;;;;;48.33;27.25;;;;;;;10.73;80.26;101326.72;5008199;28;20046;-66
2022/05/04 05:28:24;;;;;;;45.88;25.42;;;;;;;10.46;81.39;101334.81;5005605;28;20542;-67
2022/05/04 05:30:52;;;;;;;48.20;27.30;;;;;;;10.41;81.85;101343.16;5005418;28;20524;-67
2022/05/04 05:33:19;;;;;;;48.75;27.00;;;;;;;10.68;81.18;101340.56;4985915;28;20069;-66
2022/05/04 05:35:47;;;;;;;46.30;26.55;;;;;;;10.85;79.99;101326.25;5007753;28;20077;-66
2022/05/04 05:38:15;;;;;;;46.17;26.27;;;;;;;10.47;81.41;101341.16;5006954;28;20057;-66
2022/05/04 05:40:42;;;;;;;45.75;25.55;;;;;;;10.42;81.44;101342.06;4989751;28;20057;-67
2022/05/04 05:43:10;;;;;;;43.42;27.08;;;;;;;10.53;82.38;101345.50;4989207;28;20134;-66
2022/05/04 05:45:38;;;;;;;45.53;26.05;;;;;;;10.71;80.36;101345.47;5006352;28;20050;-66
2022/05/04 05:48:05;;;;;;;45.25;26.60;;;;;;;10.63;81.03;101351.69;5007732;28;20057;-66
2022/05/04 05:50:34;;;;;;;41.85;23.92;;;;;;;10.47;81.87;101347.50;5008486;28;20037;-67
2022/05/04 05:53:03;;;;;;;46.85;26.67;;;;;;;10.65;80.68;101349.41;5007813;28;20046;-66
2022/05/04 05:55:30;;;;;;;41.88;25.02;;;;;;;10.84;79.89;101347.50;5007683;28;22196;-66
2022/05/04 05:57:59;;;;;;;47.03;26.08;;;;;;;10.44;81.77;101347.28;5004178;28;20065;-66
2022/05/04 06:00:26;;;;;;;48.35;26.33;;;;;;;10.56;81.19;101345.72;5005117;28;20093;-60
2022/05/04 06:02:54;;;;;;;42.35;25.20;;;;;;;10.72;80.25;101346.31;5005432;28;20053;-66
2022/05/04 06:05:21;;;;;;;46.13;25.80;;;;;;;10.80;79.72;101357.47;4998673;28;20065;-61
2022/05/04 06:07:49;;;;;;;44.20;26.25;;;;;;;11.02;79.12;101346.63;5007574;28;20156;-62
2022/05/04 06:10:16;;;;;;;50.40;27.85;;;;;;;11.03;78.44;101348.28;5005534;28;20503;-61
2022/05/04 06:12:44;;;;;;;43.33;26.17;;;;;;;10.81;79.15;101353.59;5007516;28;20513;-60
2022/05/04 06:15:12;;;;;;;47.25;26.17;;;;;;;10.90;79.52;101373.00;4988918;28;20045;-60
2022/05/04 06:17:39;;;;;;;45.72;26.83;;;;;;;10.67;79.78;101371.19;5007730;28;20053;-68
2022/05/04 06:20:07;;;;;;;46.05;26.17;;;;;;;10.82;79.50;101369.03;5010233;28;20570;-68
2022/05/04 06:22:34;;;;;;;46.80;26.67;;;;;;;10.86;78.79;101367.28;4986569;28;20054;-66
2022/05/04 06:25:02;;;;;;;45.50;25.73;;;;;;;11.06;78.22;101372.47;5003713;28;20051;-66
2022/05/04 06:27:30;;;;;;;49.30;26.52;;;;;;;10.93;77.82;101367.72;5002085;28;20054;-61
2022/05/04 06:35:30;;;;;;;58.03;25.90;;;;;;;11.22;77.41;101373.03;4991427;28;20385;-67
2022/05/04 06:37:58;;;;;;;47.80;25.75;;;;;;;11.19;77.93;101377.22;5005323;28;20049;-68
2022/05/04 06:40:25;;;;;;;49.03;27.35;;;;;;;11.08;77.31;101366.66;5003694;28;20045;-66
2022/05/04 06:42:53;;;;;;;54.17;26.70;;;;;;;10.96;78.00;101378.16;5004787;28;20065;-67
2022/05/04 06:45:20;;;;;;;50.58;25.58;;;;;;;11.01;77.92;101369.81;5000030;28;20046;-69
2022/05/04 06:47:48;;;;;;;48.85;27.27;;;;;;;10.75;79.29;101378.75;5009210;28;20054;-65
2022/05/04 06:50:15;;;;;;;46.65;27.30;;;;;;;10.91;78.83;101382.94;5006006;28;20064;-68
2022/05/04 06:52:42;;;;;;;47.85;27.15;;;;;;;11.03;77.55;101375.84;5003026;28;20054;-67
2022/05/04 06:55:10;;;;;;;46.65;27.23;;;;;;;11.11;78.01;101377.91;4989406;28;20050;-66
2022/05/04 06:57:37;;;;;;;49.80;26.50;;;;;;;11.43;76.72;101373.50;5007099;28;20052;-66
2022/05/04 07:00:08;;;;;;;55.47;27.55;;;;;;;11.51;75.58;101367.28;5008633;28;20053;-68
2022/05/04 07:02:36;;;;;;;54.15;27.35;;;;;;;11.60;75.37;101373.72;5006806;28;20062;-68
2022/05/04 07:05:04;;;;;;;50.95;27.02;;;;;;;11.35;75.81;101375.84;4992108;28;20523;-68
2022/05/04 07:07:32;;;;;;;53.65;27.23;;;;;;;11.08;77.49;101375.75;5011365;28;20058;-67
2022/05/04 07:10:00;;;;;;;54.40;27.13;;;;;;;11.47;75.96;101366.28;5006461;28;20046;-68
2022/05/04 07:12:27;;;;;;;54.17;26.73;;;;;;;11.37;76.05;101367.25;5006458;28;20448;-67
2022/05/04 07:14:56;;;;;;;51.35;27.02;;;;;;;11.36;76.18;101376.66;5006817;28;20050;-68
2022/05/04 07:17:23;;;;;;;44.13;26.88;;;;;;;11.63;75.67;101376.72;5007938;28;20050;-69
2022/05/04 07:19:59;;;;;;;50.50;27.05;;;;;;;11.75;74.03;101384.53;5006791;28;20476;-69
2022/05/04 07:22:26;;;;;;;51.58;26.70;;;;;;;11.85;74.21;101381.59;5002310;28;20041;-67
2022/05/04 07:24:53;;;;;;;43.42;24.80;;;;;;;12.26;72.97;101385.16;4988045;28;20469;-68
2022/05/04 07:27:21;;;;;;;46.00;24.50;;;;;;;12.62;72.13;101380.50;5011391;28;20073;-67
2022/05/04 07:29:48;;;;;;;38.92;23.63;;;;;;;13.07;70.44;101385.00;5005966;28;20053;-68
2022/05/04 07:32:16;;;;;;;49.60;23.75;;;;;;;12.94;69.81;101390.50;5004537;28;20046;-67
2022/05/04 07:34:43;;;;;;;49.95;26.05;;;;;;;12.89;69.63;101396.16;5015169;28;20499;-67
2022/05/04 07:37:11;;;;;;;46.63;23.27;;;;;;;12.92;69.41;101396.34;5012970;28;20520;-67
2022/05/04 07:42:24;;;;;;;45.45;25.02;;;;;;;12.29;71.50;101406.66;5002977;28;20792;-68
2022/05/04 07:45:05;;;;;;;44.35;25.58;;;;;;;12.16;71.71;101402.75;5004057;28;20469;-69
2022/05/04 07:47:34;;;;;;;43.42;25.13;;;;;;;12.37;71.68;101395.69;5004271;28;21921;-67
2022/05/04 07:50:03;;;;;;;45.50;25.08;;;;;;;12.54;70.53;101396.97;5008943;28;20401;-68
2022/05/04 07:52:32;;;;;;;41.00;23.70;;;;;;;12.70;70.22;101401.88;5010611;28;20057;-68
2022/05/04 07:54:59;;;;;;;53.67;24.27;;;;;;;12.53;70.43;101401.69;5013931;28;20076;-68
2022/05/04 07:57:26;;;;;;;43.00;24.00;;;;;;;12.67;70.26;101393.38;5004969;28;20051;-67
2022/05/04 08:05:31;;;;;;;42.08;24.50;;;;;;;12.82;68.98;101404.06;5013246;28;20056;-67
2022/05/04 08:07:59;;;;;;;40.85;22.73;;;;;;;13.12;68.76;101403.41;5010034;28;20088;-67
2022/05/04 08:10:27;;;;;;;52.30;24.55;;;;;;;13.15;68.57;101409.13;4979949;28;20061;-68
2022/05/04 08:12:54;;;;;;;38.40;23.08;;;;;;;13.27;68.44;101406.59;5015219;28;20053;-67
2022/05/04 08:15:22;;;;;;;46.67;25.35;;;;;;;12.67;69.80;101409.97;5010136;28;20052;-68
2022/05/04 08:17:49;;;;;;;48.20;25.42;;;;;;;12.82;69.84;101401.31;5011770;28;20183;-63
2022/05/04 08:20:16;;;;;;;53.90;26.77;;;;;;;12.65;69.33;101412.22;4988357;28;20117;-66
2022/05/04 08:22:44;;;;;;;48.55;26.02;;;;;;;12.85;69.70;101411.78;5006613;28;20061;-64
2022/05/04 08:25:11;;;;;;;40.33;22.38;;;;;;;13.32;68.05;101409.25;5015040;28;20052;-65
2022/05/04 08:27:39;;;;;;;41.75;24.02;;;;;;;13.57;66.75;101413.31;4995486;28;20042;-65
2022/05/04 08:30:07;;;;;;;47.45;25.38;;;;;;;13.80;66.46;101406.59;5009236;28;20046;-64
2022/05/04 08:32:35;;;;;;;43.35;25.10;;;;;;;12.98;67.70;101411.72;5010435;28;20046;-63
2022/05/04 08:35:02;;;;;;;42.15;24.13;;;;;;;13.06;68.36;101411.00;5012097;28;20050;-67
2022/05/04 08:37:30;;;;;;;44.63;24.92;;;;;;;13.41;67.97;101404.59;5014186;28;20061;-69
2022/05/04 08:39:57;;;;;;;40.20;23.92;;;;;;;13.48;67.59;101412.44;5009732;28;20490;-69
2022/05/04 08:42:25;;;;;;;43.95;24.73;;;;;;;13.52;66.89;101403.19;5012499;28;20053;-69
2022/05/04 08:44:55;;;;;;;43.63;24.45;;;;;;;13.89;65.75;101404.72;5012486;28;20516;-70
2022/05/04 08:47:28;;;;;;;49.13;23.58;;;;;;;13.82;65.90;101397.97;5015574;28;20065;-65
2022/05/04 08:49:55;;;;;;;46.55;26.88;;;;;;;13.44;66.73;101403.16;4995954;28;20094;-64
2022/05/04 08:52:23;;;;;;;49.15;24.52;;;;;;;13.79;66.33;101413.25;4993458;28;20072;-64
2022/05/04 08:54:51;;;;;;;46.35;26.02;;;;;;;13.60;66.46;101409.91;5015444;28;20496;-68
2022/05/04 08:57:19;;;;;;;48.83;24.75;;;;;;;13.95;65.69;101414.50;4995167;28;20061;-68
2022/05/04 08:59:46;;;;;;;50.50;29.73;;;;;;;14.75;63.99;101407.75;5017434;28;20069;-64
2022/05/04 09:02:13;;;;;;;42.17;25.42;;;;;;;14.72;63.17;101408.38;4998459;28;20061;-65
2022/05/04 09:04:42;;;;;;;43.78;27.30;;;;;;;14.19;64.05;101416.88;5013306;28;20053;-68
2022/05/04 09:07:24;;;;;;;60.20;29.48;;;;;;;13.66;65.37;101416.13;5010247;28;20060;-68
2022/05/04 09:09:52;;;;;;;53.80;26.13;;;;;;;14.06;65.48;101420.56;4995639;28;20049;-67
2022/05/04 09:12:20;;;;;;;46.42;25.52;;;;;;;14.49;63.75;101419.59;5002147;28;20057;-69
2022/05/04 09:14:48;;;;;;;44.55;25.45;;;;;;;14.15;63.82;101426.97;5015825;28;20054;-68
2022/05/04 09:17:16;;;;;;;47.03;26.20;;;;;;;14.19;64.12;101426.00;5011768;28;20048;-69
2022/05/04 09:22:40;;;;;;;48.35;25.55;;;;;;;14.43;62.88;101425.63;5002687;28;20638;-64
2022/05/04 09:25:18;;;;;;;44.40;24.98;;;;;;;14.21;63.73;101412.66;4977595;28;20054;-65
2022/05/04 09:27:46;;;;;;;45.10;24.75;;;;;;;14.26;63.45;101420.03;5012799;28;20065;-65
2022/05/04 09:30:14;;;;;;;44.08;25.73;;;;;;;14.51;61.96;101419.28;5012224;28;20046;-65
2022/05/04 09:32:42;;;;;;;40.67;25.58;;;;;;;14.60;61.83;101411.81;5020058;28;20054;-68
2022/05/04 09:35:13;;;;;;;44.40;25.80;;;;;;;14.41;61.78;101417.66;4996566;28;20054;-69
2022/05/04 09:46:10;;;;;;;44.38;25.83;;;;;;;14.21;63.57;101390.47;5012560;28;20414;-69
2022/05/04 09:48:37;;;;;;;54.50;25.08;;;;;;;14.55;63.57;101385.06;5013012;28;20057;-66
2022/05/04 09:51:07;;;;;;;49.22;26.50;;;;;;;14.43;62.91;101387.66;5013136;28;20065;-64
2022/05/04 09:53:36;;;;;;;46.30;25.73;;;;;;;14.41;63.37;101386.31;4998048;28;20049;-65
2022/05/04 09:56:04;;;;;;;47.55;25.40;;;;;;;14.44;63.12;101375.41;5015539;28;20082;-66
2022/05/04 09:58:31;;;;;;;41.05;24.33;;;;;;;14.80;62.13;101389.00;4977616;28;20065;-66
2022/05/04 10:00:59;;;;;;;48.95;25.80;;;;;;;14.50;62.54;101389.94;5013959;28;20046;-66
2022/05/04 10:03:27;;;;;;;43.78;25.13;;;;;;;14.49;62.00;101393.84;5004878;28;20590;-66
2022/05/04 10:05:59;;;;;;;44.47;23.35;;;;;;;15.04;60.72;101386.56;5015862;28;20053;-64
2022/05/04 10:08:27;;;;;;;41.17;24.50;;;;;;;14.58;61.55;101389.94;4985434;28;20437;-63
2022/05/04 10:10:55;;;;;;;44.00;23.67;;;;;;;14.48;60.51;101376.41;5003533;28;20049;-68
2022/05/04 10:13:22;;;;;;;36.13;22.35;;;;;;;14.84;59.95;101392.75;4996661;28;20061;-67
2022/05/04 10:15:55;;;;;;;40.50;20.42;;;;;;;14.93;59.51;101382.47;4997800;28;20045;-66
2022/05/04 10:18:30;;;;;;;40.55;24.10;;;;;;;14.87;59.15;101383.75;4997719;28;20054;-65
2022/05/04 10:21:13;;;;;;;41.78;22.90;;;;;;;15.23;59.04;101392.59;4998693;28;20046;-66
2022/05/04 10:23:48;;;;;;;39.30;23.02;;;;;;;14.62;59.06;101385.41;5008090;28;20056;-65
2022/05/04 10:26:17;;;;;;;43.30;24.15;;;;;;;14.55;59.77;101387.00;4989467;28;20054;-64
2022/05/04 10:31:34;;;;;;;38.55;20.60;;;;;;;15.12;58.02;101391.28;5012973;28;20049;-65
2022/05/04 10:34:07;;;;;;;43.08;22.05;;;;;;;15.29;57.69;101396.81;5016167;28;20500;-70
2022/05/04 10:36:46;;;;;;;38.90;18.95;;;;;;;15.01;56.65;101394.72;5011544;28;20409;-68
2022/05/04 10:39:21;;;;;;;34.85;21.33;;;;;;;15.11;57.58;101405.50;5006977;28;21169;-68
2022/05/04 10:41:49;;;;;;;46.05;21.60;;;;;;;15.34;57.24;101409.72;4991970;28;20054;-69
2022/05/04 10:44:17;;;;;;;39.13;20.45;;;;;;;15.16;57.48;101408.09;4989961;28;20474;-67
2022/05/04 10:46:46;;;;;;;40.47;20.17;;;;;;;15.14;56.85;101407.59;5013076;28;20053;-67
2022/05/04 10:49:15;;;;;;;37.67;20.20;;;;;;;15.18;57.19;101408.59;5013540;28;20068;-68
2022/05/04 10:51:46;;;;;;;31.13;17.70;;;;;;;15.62;54.83;101405.47;5008640;28;20114;-68
2022/05/04 10:54:18;;;;;;;28.48;15.57;;;;;;;15.53;54.38;101402.69;5006600;28;20042;-68
2022/05/04 10:56:55;;;;;;;36.95;17.05;;;;;;;15.22;54.92;101409.56;4988984;28;20050;-67
2022/05/04 10:59:30;;;;;;;34.40;16.75;;;;;;;15.33;54.95;101408.91;5010396;28;20053;-68
2022/05/04 11:02:00;;;;;;;36.92;17.80;;;;;;;15.63;54.01;101399.56;4991812;28;20065;-68
2022/05/04 11:04:28;;;;;;;28.83;16.35;;;;;;;15.86;54.33;101391.00;5003971;28;20349;-66
2022/05/04 11:06:58;;;;;;;27.95;15.95;;;;;;;15.96;53.36;101388.66;5012870;28;20057;-70
2022/05/04 11:09:31;;;;;;;33.22;17.10;;;;;;;15.83;53.66;101389.69;5013258;28;20050;-66
2022/05/04 11:12:04;;;;;;;24.95;15.30;;;;;;;15.78;53.56;101389.88;4997303;28;20464;-67
2022/05/04 11:14:34;;;;;;;28.20;15.02;;;;;;;15.68;52.97;101388.28;4989553;28;20053;-68
2022/05/04 11:17:07;;;;;;;26.63;14.63;;;;;;;15.77;52.68;101379.91;5010510;28;20053;-67
2022/05/04 11:19:41;;;;;;;28.45;14.55;;;;;;;16.23;52.47;101370.72;5008756;28;20058;-67
2022/05/04 11:22:09;;;;;;;32.83;15.85;;;;;;;16.28;52.36;101370.53;5010765;28;20053;-66
2022/05/04 11:24:50;;;;;;;28.27;16.88;;;;;;;15.84;53.46;101377.44;5009930;28;20058;-67
2022/05/04 11:27:17;;;;;;;26.90;14.90;;;;;;;15.60;53.83;101371.66;5011099;28;20062;-67
2022/05/04 11:29:45;;;;;;;30.17;13.52;;;;;;;15.77;52.82;101364.06;5009432;28;20080;-67
2022/05/04 11:32:17;;;;;;;27.00;13.73;;;;;;;15.96;52.68;101372.00;5012509;28;20065;-69
2022/05/04 11:34:45;;;;;;;25.10;12.05;;;;;;;15.86;51.87;101372.38;5006945;28;20884;-65
2022/05/04 11:37:12;;;;;;;18.15;8.32;;;;;;;15.78;49.86;101374.03;5010133;28;20560;-68
2022/05/04 11:39:40;;;;;;;11.52;6.57;;;;;;;15.95;48.66;101375.94;5006911;28;20058;-66
2022/05/04 11:42:08;;;;;;;13.90;7.22;;;;;;;16.14;48.17;101369.97;5006696;28;20045;-68
2022/05/04 11:44:38;;;;;;;16.67;7.13;;;;;;;16.32;47.82;101360.38;4977028;28;20077;-67
2022/05/04 11:47:07;;;;;;;13.95;7.35;;;;;;;16.43;47.42;101364.38;4999652;28;20054;-67
2022/05/04 11:49:35;;;;;;;11.83;7.70;;;;;;;16.30;47.10;101357.13;5020348;28;20094;-65
2022/05/04 11:52:04;;;;;;;17.38;7.93;;;;;;;16.72;46.63;101350.47;5010693;28;20703;-63